sensor_id;sensor_type;location;lat;lon;timestamp;temperature;humidity
41924;DHT22;27613;48.116;11.656;2022-12-18T00:01:27;-4.40;99.90
41924;DHT22;27613;48.116;11.656;2022-12-18T00:03:54;-4.40;99.90
41924;DHT22;27613;48.116;11.656;2022-12-18T00:06:21;-4.40;99.90
41924;DHT22;27613;48.116;11.656;2022-12-18T00:08:47;-4.30;99.90
41924;DHT22;27613;48.116;11.656;2022-12-18T00:11:14;-4.40;99.90
41924;DHT22;27613;48.116;11.656;2022-12-18T00:13:40;-4.40;99.90
41924;DHT22;27613;48.116;11.656;2022-12-18T00:16:14;-4.40;99.90
41924;DHT22;27613;48.116;11.656;2022-12-18T00:18:41;-4.30;99.90
41924;DHT22;27613;48.116;11.656;2022-12-18T00:21:09;-4.40;99.90
41924;DHT22;27613;48.116;11.656;2022-12-18T00:23:36;-4.40;99.90
41924;DHT22;27613;48.116;11.656;2022-12-18T00:26:06;-4.30;99.90
41924;DHT22;27613;48.116;11.656;2022-12-18T00:28:32;-4.40;99.90
41924;DHT22;27613;48.116;11.656;2022-12-18T00:31:01;-4.30;99.90
41924;DHT22;27613;48.116;11.656;2022-12-18T00:33:27;-4.30;99.90
41924;DHT22;27613;48.116;11.656;2022-12-18T00:35:53;-4.30;99.90
41924;DHT22;27613;48.116;11.656;2022-12-18T00:38:18;-4.20;99.90
41924;DHT22;27613;48.116;11.656;2022-12-18T00:40:44;-4.30;99.90
41924;DHT22;27613;48.116;11.656;2022-12-18T00:43:09;-4.30;99.90
41924;DHT22;27613;48.116;11.656;2022-12-18T00:45:35;-4.30;99.90
41924;DHT22;27613;48.116;11.656;2022-12-18T00:48:01;-4.30;99.90
41924;DHT22;27613;48.116;11.656;2022-12-18T00:50:26;-4.20;99.90
41924;DHT22;27613;48.116;11.656;2022-12-18T00:52:52;-4.30;99.90
41924;DHT22;27613;48.116;11.656;2022-12-18T00:55:18;-4.40;99.90
41924;DHT22;27613;48.116;11.656;2022-12-18T00:57:44;-4.30;99.90
41924;DHT22;27613;48.116;11.656;2022-12-18T01:00:14;-4.30;99.90
41924;DHT22;27613;48.116;11.656;2022-12-18T01:02:40;-4.30;99.90
41924;DHT22;27613;48.116;11.656;2022-12-18T01:05:07;-4.40;99.90
41924;DHT22;27613;48.116;11.656;2022-12-18T01:07:33;-4.40;99.90
41924;DHT22;27613;48.116;11.656;2022-12-18T01:09:58;-4.40;99.90
41924;DHT22;27613;48.116;11.656;2022-12-18T01:12:24;-4.30;99.90
41924;DHT22;27613;48.116;11.656;2022-12-18T01:14:50;-4.40;99.90
41924;DHT22;27613;48.116;11.656;2022-12-18T01:17:15;-4.50;99.90
41924;DHT22;27613;48.116;11.656;2022-12-18T01:19:41;-4.40;99.90
41924;DHT22;27613;48.116;11.656;2022-12-18T01:22:07;-4.50;99.90
41924;DHT22;27613;48.116;11.656;2022-12-18T01:24:32;-4.50;99.90
41924;DHT22;27613;48.116;11.656;2022-12-18T01:26:58;-4.50;99.90
41924;DHT22;27613;48.116;11.656;2022-12-18T01:29:23;-4.40;99.90
41924;DHT22;27613;48.116;11.656;2022-12-18T01:31:49;-4.60;99.90
41924;DHT22;27613;48.116;11.656;2022-12-18T01:34:15;-4.60;99.90
41924;DHT22;27613;48.116;11.656;2022-12-18T01:36:40;-4.60;99.90
41924;DHT22;27613;48.116;11.656;2022-12-18T01:39:10;-4.70;99.90
41924;DHT22;27613;48.116;11.656;2022-12-18T01:41:36;-4.60;99.90
41924;DHT22;27613;48.116;11.656;2022-12-18T01:44:56;-4.60;99.90
41924;DHT22;27613;48.116;11.656;2022-12-18T01:50:13;-4.50;99.90
41924;DHT22;27613;48.116;11.656;2022-12-18T01:52:41;-4.40;99.90
41924;DHT22;27613;48.116;11.656;2022-12-18T01:55:08;-4.40;99.90
41924;DHT22;27613;48.116;11.656;2022-12-18T01:57:34;-4.70;99.90
41924;DHT22;27613;48.116;11.656;2022-12-18T02:00:21;-4.60;99.90
41924;DHT22;27613;48.116;11.656;2022-12-18T02:02:47;-4.50;99.90
41924;DHT22;27613;48.116;11.656;2022-12-18T02:05:16;-4.50;99.90
41924;DHT22;27613;48.116;11.656;2022-12-18T02:07:53;-4.50;99.90
41924;DHT22;27613;48.116;11.656;2022-12-18T02:10:37;-4.50;99.90
41924;DHT22;27613;48.116;11.656;2022-12-18T02:15:39;-4.50;99.90
41924;DHT22;27613;48.116;11.656;2022-12-18T02:23:45;-4.60;99.90
41924;DHT22;27613;48.116;11.656;2022-12-18T02:29:11;-4.60;99.90
41924;DHT22;27613;48.116;11.656;2022-12-18T02:31:47;-4.60;99.90
41924;DHT22;27613;48.116;11.656;2022-12-18T02:34:17;-4.60;99.90
41924;DHT22;27613;48.116;11.656;2022-12-18T02:36:48;-4.50;99.90
41924;DHT22;27613;48.116;11.656;2022-12-18T02:39:15;-4.50;99.90
41924;DHT22;27613;48.116;11.656;2022-12-18T02:41:41;-4.50;99.90
41924;DHT22;27613;48.116;11.656;2022-12-18T02:44:10;-4.50;99.90
41924;DHT22;27613;48.116;11.656;2022-12-18T02:46:48;-4.50;99.90
41924;DHT22;27613;48.116;11.656;2022-12-18T02:50:08;-4.50;99.90
41924;DHT22;27613;48.116;11.656;2022-12-18T02:58:01;-4.60;99.90
41924;DHT22;27613;48.116;11.656;2022-12-18T03:01:15;-4.70;99.90
41924;DHT22;27613;48.116;11.656;2022-12-18T03:03:27;-4.70;99.90
41924;DHT22;27613;48.116;11.656;2022-12-18T03:06:03;-4.60;99.90
41924;DHT22;27613;48.116;11.656;2022-12-18T03:08:34;-4.50;99.90
41924;DHT22;27613;48.116;11.656;2022-12-18T03:11:12;-4.60;99.90
41924;DHT22;27613;48.116;11.656;2022-12-18T03:13:39;-4.70;99.90
41924;DHT22;27613;48.116;11.656;2022-12-18T03:16:09;-4.60;99.90
41924;DHT22;27613;48.116;11.656;2022-12-18T03:18:40;-4.60;99.90
41924;DHT22;27613;48.116;11.656;2022-12-18T03:21:09;-4.50;99.90
41924;DHT22;27613;48.116;11.656;2022-12-18T03:23:48;-4.50;99.90
41924;DHT22;27613;48.116;11.656;2022-12-18T03:26:19;-4.50;99.90
41924;DHT22;27613;48.116;11.656;2022-12-18T03:29:33;-4.50;99.90
41924;DHT22;27613;48.116;11.656;2022-12-18T03:31:39;-4.50;99.90
41924;DHT22;27613;48.116;11.656;2022-12-18T03:34:12;-4.60;99.90
41924;DHT22;27613;48.116;11.656;2022-12-18T03:36:40;-4.60;99.90
41924;DHT22;27613;48.116;11.656;2022-12-18T03:39:06;-4.60;99.90
41924;DHT22;27613;48.116;11.656;2022-12-18T03:41:37;-4.50;99.90
41924;DHT22;27613;48.116;11.656;2022-12-18T03:44:35;-4.60;99.90
41924;DHT22;27613;48.116;11.656;2022-12-18T03:52:37;-4.50;99.90
41924;DHT22;27613;48.116;11.656;2022-12-18T03:55:05;-4.50;99.90
41924;DHT22;27613;48.116;11.656;2022-12-18T03:57:33;-4.50;99.90
41924;DHT22;27613;48.116;11.656;2022-12-18T04:00:09;-4.60;99.90
41924;DHT22;27613;48.116;11.656;2022-12-18T04:02:38;-4.60;99.90
41924;DHT22;27613;48.116;11.656;2022-12-18T04:05:07;-4.60;99.90
41924;DHT22;27613;48.116;11.656;2022-12-18T04:07:33;-4.60;99.90
41924;DHT22;27613;48.116;11.656;2022-12-18T04:10:02;-4.60;99.90
41924;DHT22;27613;48.116;11.656;2022-12-18T04:12:29;-4.60;99.90
41924;DHT22;27613;48.116;11.656;2022-12-18T04:14:55;-4.60;99.90
41924;DHT22;27613;48.116;11.656;2022-12-18T04:17:21;-4.60;99.90
41924;DHT22;27613;48.116;11.656;2022-12-18T04:19:47;-4.60;99.90
41924;DHT22;27613;48.116;11.656;2022-12-18T04:22:12;-4.60;99.90
41924;DHT22;27613;48.116;11.656;2022-12-18T04:24:38;-4.60;99.90
41924;DHT22;27613;48.116;11.656;2022-12-18T04:27:04;-4.70;99.90
41924;DHT22;27613;48.116;11.656;2022-12-18T04:29:29;-4.60;99.90
41924;DHT22;27613;48.116;11.656;2022-12-18T04:31:55;-4.60;99.90
41924;DHT22;27613;48.116;11.656;2022-12-18T04:34:21;-4.60;99.90
41924;DHT22;27613;48.116;11.656;2022-12-18T04:36:47;-4.50;99.90
41924;DHT22;27613;48.116;11.656;2022-12-18T04:39:13;-4.70;99.90
41924;DHT22;27613;48.116;11.656;2022-12-18T04:41:39;-4.70;99.90
41924;DHT22;27613;48.116;11.656;2022-12-18T04:44:05;-4.70;99.90
41924;DHT22;27613;48.116;11.656;2022-12-18T04:46:30;-4.70;99.90
41924;DHT22;27613;48.116;11.656;2022-12-18T04:48:56;-4.60;99.90
41924;DHT22;27613;48.116;11.656;2022-12-18T04:51:22;-4.60;99.90
41924;DHT22;27613;48.116;11.656;2022-12-18T04:53:47;-4.60;99.90
41924;DHT22;27613;48.116;11.656;2022-12-18T04:56:15;-4.60;99.90
41924;DHT22;27613;48.116;11.656;2022-12-18T04:58:42;-4.60;99.90
41924;DHT22;27613;48.116;11.656;2022-12-18T05:01:09;-4.50;99.90
41924;DHT22;27613;48.116;11.656;2022-12-18T05:03:36;-4.60;99.90
41924;DHT22;27613;48.116;11.656;2022-12-18T05:06:02;-4.60;99.90
41924;DHT22;27613;48.116;11.656;2022-12-18T05:08:28;-4.70;99.90
41924;DHT22;27613;48.116;11.656;2022-12-18T05:11:08;-4.60;99.90
41924;DHT22;27613;48.116;11.656;2022-12-18T05:13:34;-4.60;99.90
41924;DHT22;27613;48.116;11.656;2022-12-18T05:16:00;-4.60;99.90
41924;DHT22;27613;48.116;11.656;2022-12-18T05:18:26;-4.60;99.90
41924;DHT22;27613;48.116;11.656;2022-12-18T05:20:53;-4.50;99.90
41924;DHT22;27613;48.116;11.656;2022-12-18T05:23:21;-4.60;99.90
41924;DHT22;27613;48.116;11.656;2022-12-18T05:25:55;-4.60;99.90
41924;DHT22;27613;48.116;11.656;2022-12-18T05:28:23;-4.60;99.90
41924;DHT22;27613;48.116;11.656;2022-12-18T05:30:53;-4.60;99.90
41924;DHT22;27613;48.116;11.656;2022-12-18T05:33:21;-4.60;99.90
41924;DHT22;27613;48.116;11.656;2022-12-18T05:35:56;-4.60;99.90
41924;DHT22;27613;48.116;11.656;2022-12-18T05:38:24;-4.60;99.90
41924;DHT22;27613;48.116;11.656;2022-12-18T05:40:51;-4.60;99.90
41924;DHT22;27613;48.116;11.656;2022-12-18T05:43:17;-4.70;99.90
41924;DHT22;27613;48.116;11.656;2022-12-18T05:45:43;-4.70;99.90
41924;DHT22;27613;48.116;11.656;2022-12-18T05:48:12;-4.70;99.90
41924;DHT22;27613;48.116;11.656;2022-12-18T05:50:39;-4.80;99.90
41924;DHT22;27613;48.116;11.656;2022-12-18T05:53:05;-4.70;99.90
41924;DHT22;27613;48.116;11.656;2022-12-18T05:55:39;-4.80;99.90
41924;DHT22;27613;48.116;11.656;2022-12-18T05:58:07;-4.80;99.90
41924;DHT22;27613;48.116;11.656;2022-12-18T06:00:34;-4.80;99.90
41924;DHT22;27613;48.116;11.656;2022-12-18T06:03:01;-4.80;99.90
41924;DHT22;27613;48.116;11.656;2022-12-18T06:05:27;-4.80;99.90
41924;DHT22;27613;48.116;11.656;2022-12-18T06:07:53;-4.80;99.90
41924;DHT22;27613;48.116;11.656;2022-12-18T06:10:19;-4.70;99.90
41924;DHT22;27613;48.116;11.656;2022-12-18T06:12:44;-4.70;99.90
41924;DHT22;27613;48.116;11.656;2022-12-18T06:15:10;-4.70;99.90
41924;DHT22;27613;48.116;11.656;2022-12-18T06:17:36;-4.80;99.90
41924;DHT22;27613;48.116;11.656;2022-12-18T06:20:03;-4.80;99.90
41924;DHT22;27613;48.116;11.656;2022-12-18T06:22:31;-4.90;99.90
41924;DHT22;27613;48.116;11.656;2022-12-18T06:24:56;-5.10;99.90
41924;DHT22;27613;48.116;11.656;2022-12-18T06:27:35;-5.10;99.90
41924;DHT22;27613;48.116;11.656;2022-12-18T06:31:03;-5.20;99.90
41924;DHT22;27613;48.116;11.656;2022-12-18T06:34:04;-5.00;99.90
41924;DHT22;27613;48.116;11.656;2022-12-18T06:36:30;-5.00;99.90
41924;DHT22;27613;48.116;11.656;2022-12-18T06:38:56;-5.10;99.90
41924;DHT22;27613;48.116;11.656;2022-12-18T06:41:22;-5.10;99.90
41924;DHT22;27613;48.116;11.656;2022-12-18T06:43:47;-5.10;99.90
41924;DHT22;27613;48.116;11.656;2022-12-18T06:46:13;-5.00;99.90
41924;DHT22;27613;48.116;11.656;2022-12-18T06:48:39;-4.90;99.90
41924;DHT22;27613;48.116;11.656;2022-12-18T06:51:05;-5.00;99.90
41924;DHT22;27613;48.116;11.656;2022-12-18T06:53:32;-5.00;99.90
41924;DHT22;27613;48.116;11.656;2022-12-18T06:56:06;-4.90;99.90
41924;DHT22;27613;48.116;11.656;2022-12-18T06:58:32;-5.00;99.90
41924;DHT22;27613;48.116;11.656;2022-12-18T07:01:01;-4.90;99.90
41924;DHT22;27613;48.116;11.656;2022-12-18T07:03:27;-5.00;99.90
41924;DHT22;27613;48.116;11.656;2022-12-18T07:05:53;-5.10;99.90
41924;DHT22;27613;48.116;11.656;2022-12-18T07:08:19;-5.10;99.90
41924;DHT22;27613;48.116;11.656;2022-12-18T07:10:44;-5.30;99.90
41924;DHT22;27613;48.116;11.656;2022-12-18T07:13:10;-5.20;99.90
41924;DHT22;27613;48.116;11.656;2022-12-18T07:15:36;-5.10;99.90
41924;DHT22;27613;48.116;11.656;2022-12-18T07:18:02;-5.00;99.90
41924;DHT22;27613;48.116;11.656;2022-12-18T07:20:27;-5.00;99.90
41924;DHT22;27613;48.116;11.656;2022-12-18T07:22:53;-5.20;99.90
41924;DHT22;27613;48.116;11.656;2022-12-18T07:25:18;-5.30;99.90
41924;DHT22;27613;48.116;11.656;2022-12-18T07:27:44;-5.30;99.90
41924;DHT22;27613;48.116;11.656;2022-12-18T07:30:10;-5.10;99.90
41924;DHT22;27613;48.116;11.656;2022-12-18T07:32:35;-5.20;99.90
41924;DHT22;27613;48.116;11.656;2022-12-18T07:35:01;-5.00;99.90
41924;DHT22;27613;48.116;11.656;2022-12-18T07:37:26;-5.00;99.90
41924;DHT22;27613;48.116;11.656;2022-12-18T07:39:52;-4.90;99.90
41924;DHT22;27613;48.116;11.656;2022-12-18T07:42:18;-4.90;99.90
41924;DHT22;27613;48.116;11.656;2022-12-18T07:44:56;-4.90;99.90
41924;DHT22;27613;48.116;11.656;2022-12-18T07:47:21;-4.80;99.90
41924;DHT22;27613;48.116;11.656;2022-12-18T07:49:47;-4.80;99.90
41924;DHT22;27613;48.116;11.656;2022-12-18T07:52:13;-4.80;99.90
41924;DHT22;27613;48.116;11.656;2022-12-18T07:54:38;-4.80;99.90
41924;DHT22;27613;48.116;11.656;2022-12-18T07:57:05;-4.80;99.90
41924;DHT22;27613;48.116;11.656;2022-12-18T07:59:31;-4.70;99.90
41924;DHT22;27613;48.116;11.656;2022-12-18T08:01:56;-4.70;99.90
41924;DHT22;27613;48.116;11.656;2022-12-18T08:04:22;-4.80;99.90
41924;DHT22;27613;48.116;11.656;2022-12-18T08:06:48;-4.80;99.90
41924;DHT22;27613;48.116;11.656;2022-12-18T08:09:13;-4.70;99.90
41924;DHT22;27613;48.116;11.656;2022-12-18T08:11:39;-4.50;99.90
41924;DHT22;27613;48.116;11.656;2022-12-18T08:14:04;-4.50;99.90
41924;DHT22;27613;48.116;11.656;2022-12-18T08:16:30;-4.60;99.90
41924;DHT22;27613;48.116;11.656;2022-12-18T08:18:56;-4.60;99.90
41924;DHT22;27613;48.116;11.656;2022-12-18T08:21:24;-4.50;99.90
41924;DHT22;27613;48.116;11.656;2022-12-18T08:23:52;-4.70;99.90
41924;DHT22;27613;48.116;11.656;2022-12-18T08:26:19;-4.70;99.90
41924;DHT22;27613;48.116;11.656;2022-12-18T08:28:45;-4.90;99.90
41924;DHT22;27613;48.116;11.656;2022-12-18T08:31:10;-4.80;99.90
41924;DHT22;27613;48.116;11.656;2022-12-18T08:33:37;-5.00;99.90
41924;DHT22;27613;48.116;11.656;2022-12-18T08:36:04;-5.10;99.90
41924;DHT22;27613;48.116;11.656;2022-12-18T08:38:29;-4.80;99.90
41924;DHT22;27613;48.116;11.656;2022-12-18T08:41:05;-4.70;99.90
41924;DHT22;27613;48.116;11.656;2022-12-18T08:43:31;-4.50;99.90
41924;DHT22;27613;48.116;11.656;2022-12-18T08:46:15;-4.40;99.90
41924;DHT22;27613;48.116;11.656;2022-12-18T08:48:41;-4.20;99.90
41924;DHT22;27613;48.116;11.656;2022-12-18T08:51:07;-4.20;99.90
41924;DHT22;27613;48.116;11.656;2022-12-18T08:53:35;-4.20;99.90
41924;DHT22;27613;48.116;11.656;2022-12-18T08:56:02;-4.30;99.90
41924;DHT22;27613;48.116;11.656;2022-12-18T08:58:28;-4.10;99.90
41924;DHT22;27613;48.116;11.656;2022-12-18T09:00:53;-4.20;99.90
41924;DHT22;27613;48.116;11.656;2022-12-18T09:03:19;-4.80;99.90
41924;DHT22;27613;48.116;11.656;2022-12-18T09:05:47;-4.80;99.90
41924;DHT22;27613;48.116;11.656;2022-12-18T09:08:13;-4.50;99.90
41924;DHT22;27613;48.116;11.656;2022-12-18T09:10:43;-4.60;99.90
41924;DHT22;27613;48.116;11.656;2022-12-18T09:13:10;-4.40;99.90
41924;DHT22;27613;48.116;11.656;2022-12-18T09:15:41;-4.40;99.90
41924;DHT22;27613;48.116;11.656;2022-12-18T09:18:07;-4.20;99.90
41924;DHT22;27613;48.116;11.656;2022-12-18T09:20:32;-4.10;99.90
41924;DHT22;27613;48.116;11.656;2022-12-18T09:23:01;-4.20;99.90
41924;DHT22;27613;48.116;11.656;2022-12-18T09:25:29;-4.30;99.90
41924;DHT22;27613;48.116;11.656;2022-12-18T09:28:01;-4.50;99.90
41924;DHT22;27613;48.116;11.656;2022-12-18T09:30:27;-4.50;99.90
41924;DHT22;27613;48.116;11.656;2022-12-18T09:32:58;-4.60;99.90
41924;DHT22;27613;48.116;11.656;2022-12-18T09:35:29;-4.50;99.90
41924;DHT22;27613;48.116;11.656;2022-12-18T09:37:57;-4.30;99.90
41924;DHT22;27613;48.116;11.656;2022-12-18T09:40:35;-4.20;99.90
41924;DHT22;27613;48.116;11.656;2022-12-18T09:43:05;-4.50;99.90
41924;DHT22;27613;48.116;11.656;2022-12-18T09:45:40;-4.30;99.90
41924;DHT22;27613;48.116;11.656;2022-12-18T09:48:14;-4.50;99.90
41924;DHT22;27613;48.116;11.656;2022-12-18T09:50:43;-4.50;99.90
41924;DHT22;27613;48.116;11.656;2022-12-18T09:53:20;-4.40;99.90
41924;DHT22;27613;48.116;11.656;2022-12-18T09:55:48;-4.20;99.90
41924;DHT22;27613;48.116;11.656;2022-12-18T09:58:32;-4.00;99.90
41924;DHT22;27613;48.116;11.656;2022-12-18T10:01:06;-4.00;99.90
41924;DHT22;27613;48.116;11.656;2022-12-18T10:03:33;-4.20;99.90
41924;DHT22;27613;48.116;11.656;2022-12-18T10:10:55;-4.10;99.90
41924;DHT22;27613;48.116;11.656;2022-12-18T10:13:50;-4.20;99.90
41924;DHT22;27613;48.116;11.656;2022-12-18T10:19:15;-4.40;99.90
41924;DHT22;27613;48.116;11.656;2022-12-18T10:25:12;-4.40;99.90
41924;DHT22;27613;48.116;11.656;2022-12-18T10:27:40;-4.00;99.90
41924;DHT22;27613;48.116;11.656;2022-12-18T10:30:14;-3.90;99.90
41924;DHT22;27613;48.116;11.656;2022-12-18T10:32:41;-4.30;99.90
41924;DHT22;27613;48.116;11.656;2022-12-18T10:35:25;-4.50;99.90
41924;DHT22;27613;48.116;11.656;2022-12-18T10:43:37;-4.30;99.90
41924;DHT22;27613;48.116;11.656;2022-12-18T10:48:56;-3.90;99.90
41924;DHT22;27613;48.116;11.656;2022-12-18T10:51:29;-3.70;99.90
41924;DHT22;27613;48.116;11.656;2022-12-18T10:53:57;-3.90;99.90
41924;DHT22;27613;48.116;11.656;2022-12-18T10:56:24;-4.00;99.90
41924;DHT22;27613;48.116;11.656;2022-12-18T10:59:00;-3.80;99.90
41924;DHT22;27613;48.116;11.656;2022-12-18T11:01:27;-3.80;99.90
41924;DHT22;27613;48.116;11.656;2022-12-18T11:06:21;-3.50;99.90
41924;DHT22;27613;48.116;11.656;2022-12-18T11:09:17;-3.50;99.90
41924;DHT22;27613;48.116;11.656;2022-12-18T11:11:52;-3.40;99.90
41924;DHT22;27613;48.116;11.656;2022-12-18T11:14:31;-3.40;99.90
41924;DHT22;27613;48.116;11.656;2022-12-18T11:16:59;-3.30;99.90
41924;DHT22;27613;48.116;11.656;2022-12-18T11:19:41;-3.30;99.90
41924;DHT22;27613;48.116;11.656;2022-12-18T11:22:30;-3.30;99.90
41924;DHT22;27613;48.116;11.656;2022-12-18T11:25:02;-3.40;99.90
41924;DHT22;27613;48.116;11.656;2022-12-18T11:27:31;-3.20;99.90
41924;DHT22;27613;48.116;11.656;2022-12-18T11:30:21;-3.10;99.90
41924;DHT22;27613;48.116;11.656;2022-12-18T11:32:49;-2.90;99.90
41924;DHT22;27613;48.116;11.656;2022-12-18T11:38:11;-3.10;99.90
41924;DHT22;27613;48.116;11.656;2022-12-18T11:40:41;-3.00;99.90
41924;DHT22;27613;48.116;11.656;2022-12-18T11:43:20;-2.90;99.90
41924;DHT22;27613;48.116;11.656;2022-12-18T11:48:37;-3.00;99.90
41924;DHT22;27613;48.116;11.656;2022-12-18T11:51:14;-2.90;99.90
41924;DHT22;27613;48.116;11.656;2022-12-18T11:53:40;-2.80;99.90
41924;DHT22;27613;48.116;11.656;2022-12-18T11:56:27;-2.80;99.90
41924;DHT22;27613;48.116;11.656;2022-12-18T11:59:05;-2.80;99.90
41924;DHT22;27613;48.116;11.656;2022-12-18T12:01:48;-2.90;99.90
41924;DHT22;27613;48.116;11.656;2022-12-18T12:04:45;-3.00;99.90
41924;DHT22;27613;48.116;11.656;2022-12-18T12:07:17;-2.90;99.90
41924;DHT22;27613;48.116;11.656;2022-12-18T12:18:20;-2.90;99.90
41924;DHT22;27613;48.116;11.656;2022-12-18T12:34:33;-3.20;99.90
41924;DHT22;27613;48.116;11.656;2022-12-18T12:39:36;-4.20;99.90
41924;DHT22;27613;48.116;11.656;2022-12-18T12:42:04;-4.50;99.90
41924;DHT22;27613;48.116;11.656;2022-12-18T12:44:55;-4.20;99.90
41924;DHT22;27613;48.116;11.656;2022-12-18T12:47:33;-4.00;99.90
41924;DHT22;27613;48.116;11.656;2022-12-18T12:50:04;-4.10;99.90
41924;DHT22;27613;48.116;11.656;2022-12-18T12:52:37;-3.90;99.90
41924;DHT22;27613;48.116;11.656;2022-12-18T12:55:07;-4.30;99.90
41924;DHT22;27613;48.116;11.656;2022-12-18T12:57:40;-4.40;99.90
41924;DHT22;27613;48.116;11.656;2022-12-18T13:00:11;-3.80;99.90
41924;DHT22;27613;48.116;11.656;2022-12-18T13:07:53;-3.80;99.90
41924;DHT22;27613;48.116;11.656;2022-12-18T13:13:11;-3.20;99.90
41924;DHT22;27613;48.116;11.656;2022-12-18T13:15:43;-3.20;99.90
41924;DHT22;27613;48.116;11.656;2022-12-18T13:18:12;-3.10;99.90
41924;DHT22;27613;48.116;11.656;2022-12-18T13:25:50;-3.00;99.90
41924;DHT22;27613;48.116;11.656;2022-12-18T13:34:20;-3.50;99.90
41924;DHT22;27613;48.116;11.656;2022-12-18T13:36:47;-4.00;99.90
41924;DHT22;27613;48.116;11.656;2022-12-18T13:41:51;-3.70;99.90
41924;DHT22;27613;48.116;11.656;2022-12-18T13:44:35;-3.60;99.90
41924;DHT22;27613;48.116;11.656;2022-12-18T13:47:03;-3.50;99.90
41924;DHT22;27613;48.116;11.656;2022-12-18T13:49:40;-3.90;99.90
41924;DHT22;27613;48.116;11.656;2022-12-18T13:52:27;-3.70;99.90
41924;DHT22;27613;48.116;11.656;2022-12-18T13:54:56;-3.60;99.90
41924;DHT22;27613;48.116;11.656;2022-12-18T13:57:38;-3.60;99.90
41924;DHT22;27613;48.116;11.656;2022-12-18T14:02:48;-3.70;99.90
41924;DHT22;27613;48.116;11.656;2022-12-18T14:07:53;-4.30;99.90
41924;DHT22;27613;48.116;11.656;2022-12-18T14:10:19;-4.30;99.90
41924;DHT22;27613;48.116;11.656;2022-12-18T14:12:48;-4.50;99.90
41924;DHT22;27613;48.116;11.656;2022-12-18T14:18:09;-4.70;99.90
41924;DHT22;27613;48.116;11.656;2022-12-18T14:20:43;-4.50;99.90
41924;DHT22;27613;48.116;11.656;2022-12-18T14:25:54;-4.50;99.90
41924;DHT22;27613;48.116;11.656;2022-12-18T14:28:19;-4.60;99.90
41924;DHT22;27613;48.116;11.656;2022-12-18T14:30:47;-4.60;99.90
41924;DHT22;27613;48.116;11.656;2022-12-18T14:33:15;-4.60;99.90
41924;DHT22;27613;48.116;11.656;2022-12-18T14:36:03;-4.90;99.90
41924;DHT22;27613;48.116;11.656;2022-12-18T14:38:33;-5.00;99.90
41924;DHT22;27613;48.116;11.656;2022-12-18T14:41:21;-4.90;99.90
41924;DHT22;27613;48.116;11.656;2022-12-18T14:43:49;-4.90;99.90
41924;DHT22;27613;48.116;11.656;2022-12-18T14:48:54;-5.00;99.90
41924;DHT22;27613;48.116;11.656;2022-12-18T14:51:23;-5.00;99.90
41924;DHT22;27613;48.116;11.656;2022-12-18T14:53:54;-4.90;99.90
41924;DHT22;27613;48.116;11.656;2022-12-18T14:56:28;-4.90;99.90
41924;DHT22;27613;48.116;11.656;2022-12-18T14:58:59;-4.80;99.90
41924;DHT22;27613;48.116;11.656;2022-12-18T15:01:28;-4.70;99.90
41924;DHT22;27613;48.116;11.656;2022-12-18T15:03:55;-4.60;99.90
41924;DHT22;27613;48.116;11.656;2022-12-18T15:09:00;-4.90;99.90
41924;DHT22;27613;48.116;11.656;2022-12-18T15:11:34;-4.70;99.90
41924;DHT22;27613;48.116;11.656;2022-12-18T15:16:56;-5.00;99.90
41924;DHT22;27613;48.116;11.656;2022-12-18T15:19:32;-5.00;99.90
41924;DHT22;27613;48.116;11.656;2022-12-18T15:21:57;-4.90;99.90
41924;DHT22;27613;48.116;11.656;2022-12-18T15:24:27;-4.90;99.90
41924;DHT22;27613;48.116;11.656;2022-12-18T15:26:55;-4.80;99.90
41924;DHT22;27613;48.116;11.656;2022-12-18T15:29:21;-4.80;99.90
41924;DHT22;27613;48.116;11.656;2022-12-18T15:32:04;-4.70;99.90
41924;DHT22;27613;48.116;11.656;2022-12-18T15:34:31;-4.70;99.90
41924;DHT22;27613;48.116;11.656;2022-12-18T15:36:59;-4.90;99.90
41924;DHT22;27613;48.116;11.656;2022-12-18T15:39:25;-5.10;99.90
41924;DHT22;27613;48.116;11.656;2022-12-18T15:41:51;-5.10;99.90
41924;DHT22;27613;48.116;11.656;2022-12-18T15:44:52;-5.00;99.90
41924;DHT22;27613;48.116;11.656;2022-12-18T15:47:17;-5.20;99.90
41924;DHT22;27613;48.116;11.656;2022-12-18T15:49:43;-5.00;99.90
41924;DHT22;27613;48.116;11.656;2022-12-18T15:52:12;-4.90;99.90
41924;DHT22;27613;48.116;11.656;2022-12-18T15:54:38;-5.00;99.90
41924;DHT22;27613;48.116;11.656;2022-12-18T15:57:22;-4.90;99.90
41924;DHT22;27613;48.116;11.656;2022-12-18T15:59:48;-5.00;99.90
41924;DHT22;27613;48.116;11.656;2022-12-18T16:02:17;-5.00;99.90
41924;DHT22;27613;48.116;11.656;2022-12-18T16:04:43;-5.10;99.90
41924;DHT22;27613;48.116;11.656;2022-12-18T16:07:09;-5.30;99.90
41924;DHT22;27613;48.116;11.656;2022-12-18T16:09:35;-5.40;99.90
41924;DHT22;27613;48.116;11.656;2022-12-18T16:12:01;-5.20;99.90
41924;DHT22;27613;48.116;11.656;2022-12-18T16:14:29;-5.30;99.90
41924;DHT22;27613;48.116;11.656;2022-12-18T16:16:57;-5.20;99.90
41924;DHT22;27613;48.116;11.656;2022-12-18T16:19:23;-5.30;99.90
41924;DHT22;27613;48.116;11.656;2022-12-18T16:21:50;-5.30;99.90
41924;DHT22;27613;48.116;11.656;2022-12-18T16:24:19;-5.40;99.90
41924;DHT22;27613;48.116;11.656;2022-12-18T16:26:45;-5.40;99.90
41924;DHT22;27613;48.116;11.656;2022-12-18T16:29:10;-5.40;99.90
41924;DHT22;27613;48.116;11.656;2022-12-18T16:31:37;-5.20;99.90
41924;DHT22;27613;48.116;11.656;2022-12-18T16:36:49;-5.00;99.90
41924;DHT22;27613;48.116;11.656;2022-12-18T16:39:15;-5.10;99.90
41924;DHT22;27613;48.116;11.656;2022-12-18T16:41:41;-5.10;99.90
41924;DHT22;27613;48.116;11.656;2022-12-18T16:44:07;-5.30;99.90
41924;DHT22;27613;48.116;11.656;2022-12-18T16:46:32;-5.30;99.90
41924;DHT22;27613;48.116;11.656;2022-12-18T16:48:59;-5.30;99.90
41924;DHT22;27613;48.116;11.656;2022-12-18T16:51:26;-5.30;99.90
41924;DHT22;27613;48.116;11.656;2022-12-18T16:53:55;-5.40;99.90
41924;DHT22;27613;48.116;11.656;2022-12-18T16:56:21;-5.40;99.90
41924;DHT22;27613;48.116;11.656;2022-12-18T16:58:53;-5.20;99.90
41924;DHT22;27613;48.116;11.656;2022-12-18T17:01:20;-5.10;99.90
41924;DHT22;27613;48.116;11.656;2022-12-18T17:03:59;-5.10;99.90
41924;DHT22;27613;48.116;11.656;2022-12-18T17:06:27;-5.20;99.90
41924;DHT22;27613;48.116;11.656;2022-12-18T17:09:02;-5.10;99.90
41924;DHT22;27613;48.116;11.656;2022-12-18T17:11:30;-5.30;99.90
41924;DHT22;27613;48.116;11.656;2022-12-18T17:13:56;-5.40;99.90
41924;DHT22;27613;48.116;11.656;2022-12-18T17:16:22;-5.30;99.90
41924;DHT22;27613;48.116;11.656;2022-12-18T17:18:49;-5.30;99.90
41924;DHT22;27613;48.116;11.656;2022-12-18T17:21:15;-5.20;99.90
41924;DHT22;27613;48.116;11.656;2022-12-18T17:23:41;-5.20;99.90
41924;DHT22;27613;48.116;11.656;2022-12-18T17:26:12;-5.40;99.90
41924;DHT22;27613;48.116;11.656;2022-12-18T17:28:39;-5.30;99.90
41924;DHT22;27613;48.116;11.656;2022-12-18T17:31:12;-5.30;99.90
41924;DHT22;27613;48.116;11.656;2022-12-18T17:33:39;-5.50;99.90